Time;durP1;ratioP1;P1;durP2;ratioP2;P2;SDS_P1;SDS_P2;PMS_P1;PMS_P2;Temp;Humidity;BMP_temperature;BMP_pressure;BME280_temperature;BME280_humidity;BME280_pressure;Samples;Min_cycle;Max_cycle;Signal;HPM_P1;HPM_P2
2023/12/20 00:04:02;;;;;;;39.85;21.63;;;;;;;5.12;100.00;101251.94;10507664;28;20056;-81
2023/12/20 00:09:02;;;;;;;30.47;19.03;;;;;;;5.05;100.00;101249.66;10489340;28;20040;-81
2023/12/20 00:14:03;;;;;;;43.95;21.95;;;;;;;4.90;100.00;101245.91;10508564;28;20842;-80
2023/12/20 00:19:03;;;;;;;32.08;20.02;;;;;;;4.64;100.00;101258.66;10491307;28;20043;-80
2023/12/20 00:24:04;;;;;;;28.98;19.70;;;;;;;4.49;100.00;101258.38;10508216;28;20658;-81
2023/12/20 00:29:05;;;;;;;28.27;17.33;;;;;;;4.53;100.00;101278.56;10491050;28;20040;-80
2023/12/20 00:34:05;;;;;;;28.65;14.30;;;;;;;4.48;100.00;101273.78;10501365;28;20198;-81
2023/12/20 00:39:06;;;;;;;24.60;12.95;;;;;;;4.45;100.00;101287.44;10495653;28;20543;-81
2023/12/20 00:44:07;;;;;;;18.05;10.98;;;;;;;4.39;100.00;101287.84;10497996;28;20040;-81
2023/12/20 00:49:07;;;;;;;14.93;10.00;;;;;;;4.05;100.00;101289.44;10503128;28;20436;-81
2023/12/20 00:54:09;;;;;;;27.30;10.65;;;;;;;3.95;100.00;101283.50;10506561;28;20559;-81
2023/12/20 00:59:09;;;;;;;31.63;10.87;;;;;;;3.76;100.00;101282.78;10499744;28;20093;-81
2023/12/20 01:04:10;;;;;;;30.67;9.75;;;;;;;3.69;100.00;101276.19;10517819;28;20202;-81
2023/12/20 01:09:11;;;;;;;28.90;7.70;;;;;;;3.53;100.00;101274.94;10499105;28;20047;-81
2023/12/20 01:14:11;;;;;;;17.25;8.10;;;;;;;3.47;100.00;101274.41;10498245;28;20071;-81
2023/12/20 01:19:13;;;;;;;21.45;8.57;;;;;;;3.35;100.00;101271.75;10512454;27;20040;-80
2023/12/20 01:24:13;;;;;;;16.58;9.57;;;;;;;3.26;100.00;101282.97;10515226;28;20044;-79
2023/12/20 01:29:14;;;;;;;20.88;7.75;;;;;;;3.15;100.00;101277.81;10501900;28;20410;-80
2023/12/20 01:34:15;;;;;;;26.75;7.57;;;;;;;3.03;100.00;101285.47;10479986;28;20124;-80
2023/12/20 01:39:15;;;;;;;24.58;5.95;;;;;;;2.94;100.00;101289.84;10506063;28;20070;-80
2023/12/20 01:44:16;;;;;;;18.13;6.53;;;;;;;2.82;100.00;101284.53;10512323;28;20034;-80
2023/12/20 01:49:16;;;;;;;29.10;6.28;;;;;;;2.87;100.00;101292.69;10495384;28;20040;-81
2023/12/20 01:54:17;;;;;;;17.35;8.38;;;;;;;2.97;100.00;101295.28;10498217;28;20064;-80
2023/12/20 01:59:18;;;;;;;15.30;7.28;;;;;;;2.85;100.00;101297.72;10491249;28;20049;-81
2023/12/20 02:04:19;;;;;;;17.40;7.53;;;;;;;2.75;100.00;101303.78;10465610;28;20044;-80
2023/12/20 02:09:19;;;;;;;26.30;8.32;;;;;;;2.76;100.00;101309.84;10496427;28;20036;-80
2023/12/20 02:14:20;;;;;;;19.85;4.47;;;;;;;2.81;100.00;101299.91;10502753;28;20472;-80
2023/12/20 02:19:20;;;;;;;19.10;7.10;;;;;;;2.84;100.00;101306.25;10507864;28;20052;-80
2023/12/20 02:24:21;;;;;;;11.65;5.13;;;;;;;2.91;100.00;101312.88;10502691;28;20614;-79
2023/12/20 02:29:21;;;;;;;10.25;5.50;;;;;;;2.83;100.00;101313.88;10508287;28;20169;-79
2023/12/20 02:34:22;;;;;;;16.10;6.78;;;;;;;2.85;100.00;101315.81;10503460;28;20140;-79
2023/12/20 02:39:22;;;;;;;15.63;6.53;;;;;;;3.05;100.00;101308.84;10490186;28;20402;-80
2023/12/20 02:44:23;;;;;;;21.50;8.60;;;;;;;3.16;100.00;101307.19;10501061;28;20075;-80
2023/12/20 02:49:23;;;;;;;21.90;10.70;;;;;;;3.19;100.00;101303.16;10506700;28;20456;-80
2023/12/20 02:54:24;;;;;;;30.77;8.90;;;;;;;3.02;100.00;101300.84;10483402;28;20036;-79
2023/12/20 02:59:24;;;;;;;24.92;9.45;;;;;;;2.98;100.00;101291.00;10495768;28;20479;-79
2023/12/20 03:04:25;;;;;;;21.73;8.57;;;;;;;3.16;100.00;101304.59;10492537;28;20178;-81
2023/12/20 03:09:25;;;;;;;23.85;8.75;;;;;;;3.12;100.00;101318.06;10496247;28;20131;-81
2023/12/20 03:14:26;;;;;;;22.45;9.43;;;;;;;3.05;100.00;101306.25;10496943;28;20403;-81
2023/12/20 03:19:26;;;;;;;23.58;9.27;;;;;;;2.89;100.00;101304.97;10479335;28;20046;-80
2023/12/20 03:24:27;;;;;;;19.55;9.40;;;;;;;2.83;100.00;101298.38;10510434;28;20551;-80
2023/12/20 03:29:28;;;;;;;27.10;10.82;;;;;;;2.90;100.00;101300.72;10478690;28;20032;-81
2023/12/20 03:34:29;;;;;;;35.83;10.60;;;;;;;2.79;100.00;101292.94;10505572;28;20572;-81
2023/12/20 03:39:29;;;;;;;22.88;11.07;;;;;;;2.74;100.00;101288.13;10507957;28;20044;-80
2023/12/20 03:44:30;;;;;;;33.00;12.40;;;;;;;2.66;100.00;101291.72;10507625;28;20086;-80
2023/12/20 03:49:30;;;;;;;23.65;12.15;;;;;;;2.59;100.00;101279.97;10490560;28;20123;-80
2023/12/20 03:54:31;;;;;;;22.52;13.20;;;;;;;2.52;100.00;101275.94;10501586;28;20056;-80
2023/12/20 03:59:36;;;;;;;19.83;11.80;;;;;;;2.46;100.00;101268.59;10507148;28;20070;-80
2023/12/20 04:04:36;;;;;;;25.40;13.38;;;;;;;2.43;100.00;101268.31;10500694;28;20388;-79
2023/12/20 04:09:37;;;;;;;26.42;13.55;;;;;;;2.38;100.00;101274.75;10507053;28;20033;-80
2023/12/20 04:14:37;;;;;;;35.08;12.48;;;;;;;2.41;100.00;101289.59;10510164;28;20369;-79
2023/12/20 04:19:38;;;;;;;31.08;16.38;;;;;;;2.42;100.00;101287.19;10499610;28;20132;-80
2023/12/20 04:24:38;;;;;;;33.35;13.20;;;;;;;2.64;100.00;101291.63;10501765;28;20040;-80
2023/12/20 04:29:39;;;;;;;24.33;13.73;;;;;;;2.87;100.00;101303.03;10511512;28;20405;-80
2023/12/20 04:34:39;;;;;;;38.22;14.00;;;;;;;2.98;100.00;101291.94;10495844;28;20074;-80
2023/12/20 04:39:41;;;;;;;36.75;16.95;;;;;;;3.14;100.00;101285.47;10510377;28;20515;-81
2023/12/20 04:44:43;;;;;;;29.35;14.55;;;;;;;3.28;100.00;101284.03;10500386;28;20067;-79
2023/12/20 04:49:44;;;;;;;;;;;;;;;3.40;100.00;101295.38;10505697;28;20040;-80
2023/12/20 04:54:44;;;;;;;28.13;13.20;;;;;;;3.47;100.00;101296.81;10500221;28;19924;-80
2023/12/20 04:59:45;;;;;;;21.95;11.30;;;;;;;3.51;100.00;101297.19;10488507;28;20149;-80
2023/12/20 05:04:46;;;;;;;27.33;11.85;;;;;;;3.61;100.00;101290.19;10504511;28;20142;-79
2023/12/20 05:09:47;;;;;;;34.92;13.43;;;;;;;3.63;100.00;101276.59;10494542;28;20040;-79
2023/12/20 05:14:47;;;;;;;19.55;10.48;;;;;;;3.72;100.00;101275.56;10500060;28;20502;-79
2023/12/20 05:19:48;;;;;;;25.15;12.57;;;;;;;3.79;100.00;101270.97;10504226;28;20123;-80
2023/12/20 05:24:48;;;;;;;27.27;11.35;;;;;;;3.90;100.00;101258.00;10501124;28;20174;-79
2023/12/20 05:29:49;;;;;;;18.75;9.80;;;;;;;3.93;100.00;101256.56;10492028;28;20131;-80
2023/12/20 05:34:50;;;;;;;18.45;8.75;;;;;;;3.95;100.00;101255.00;10498620;28;20090;-81
2023/12/20 05:39:50;;;;;;;29.83;7.80;;;;;;;4.00;100.00;101246.72;10491464;28;20461;-81
2023/12/20 05:44:51;;;;;;;17.77;7.60;;;;;;;4.01;100.00;101254.59;10500288;28;20123;-81
2023/12/20 05:49:51;;;;;;;20.13;9.05;;;;;;;4.07;100.00;101260.25;10499521;28;20116;-81
2023/12/20 05:54:52;;;;;;;18.05;10.63;;;;;;;4.07;100.00;101252.50;10492459;28;20046;-83
2023/12/20 05:59:53;;;;;;;19.10;9.32;;;;;;;4.15;100.00;101258.31;10512116;28;20123;-82
2023/12/20 06:04:53;;;;;;;19.55;8.80;;;;;;;4.22;100.00;101257.09;10478114;28;20041;-79
2023/12/20 06:09:54;;;;;;;25.05;10.68;;;;;;;4.25;100.00;101253.06;10512899;28;20044;-78
2023/12/20 06:14:55;;;;;;;22.67;9.33;;;;;;;4.27;100.00;101263.53;10511986;28;20050;-77
2023/12/20 06:19:55;;;;;;;28.45;8.90;;;;;;;4.29;100.00;101274.03;10476302;28;20068;-80
2023/12/20 06:24:56;;;;;;;21.30;8.63;;;;;;;4.32;100.00;101272.59;10487137;28;20040;-82
2023/12/20 06:29:56;;;;;;;15.10;5.60;;;;;;;4.34;100.00;101267.53;10490837;28;20515;-83
2023/12/20 06:34:57;;;;;;;18.30;7.93;;;;;;;4.34;100.00;101264.94;10442691;28;20064;-82
2023/12/20 06:39:57;;;;;;;19.15;7.97;;;;;;;4.31;100.00;101257.81;10480356;28;20040;-80
2023/12/20 06:44:58;;;;;;;18.40;8.05;;;;;;;4.32;100.00;101253.56;10483900;28;20127;-80
2023/12/20 06:49:58;;;;;;;16.67;5.60;;;;;;;4.28;100.00;101261.88;10454839;28;20548;-79
2023/12/20 06:54:59;;;;;;;20.42;8.50;;;;;;;4.20;100.00;101246.63;10478807;28;20150;-80
2023/12/20 07:00:00;;;;;;;16.00;6.68;;;;;;;3.94;100.00;101228.97;10480660;28;20051;-82
2023/12/20 07:05:00;;;;;;;27.65;7.45;;;;;;;3.75;100.00;101227.50;10490035;28;20040;-80
2023/12/20 07:10:01;;;;;;;17.15;7.15;;;;;;;3.47;100.00;101220.06;10491662;28;20551;-81
2023/12/20 07:15:02;;;;;;;14.98;5.85;;;;;;;3.41;100.00;101222.16;10496927;28;20197;-80
2023/12/20 07:20:03;;;;;;;26.58;8.70;;;;;;;3.26;100.00;101219.22;10508556;28;20043;-81
2023/12/20 07:25:04;;;;;;;19.77;7.80;;;;;;;3.11;100.00;101229.19;10497681;28;20032;-80
2023/12/20 07:30:05;;;;;;;23.00;7.90;;;;;;;3.11;100.00;101230.88;10508493;28;20044;-81
2023/12/20 07:35:06;;;;;;;17.73;7.90;;;;;;;3.09;100.00;101238.50;10516103;28;20423;-81
2023/12/20 07:40:07;;;;;;;22.38;7.35;;;;;;;3.08;100.00;101249.63;10500855;28;20116;-81
2023/12/20 07:45:10;;;;;;;10.37;5.40;;;;;;;3.08;100.00;101250.53;10488948;28;20119;-80
2023/12/20 07:50:11;;;;;;;23.15;6.75;;;;;;;3.00;100.00;101248.06;10503490;28;20098;-80
2023/12/20 07:55:11;;;;;;;19.52;8.10;;;;;;;2.90;100.00;101241.25;10501569;28;20566;-81
2023/12/20 08:00:12;;;;;;;14.15;8.15;;;;;;;2.88;100.00;101251.44;10492436;28;20381;-80
2023/12/20 08:05:13;;;;;;;13.43;6.70;;;;;;;3.06;100.00;101244.34;10509078;28;20446;-78
2023/12/20 08:10:14;;;;;;;15.98;6.55;;;;;;;3.31;100.00;101245.47;10477790;27;20035;-79
2023/12/20 08:15:14;;;;;;;24.55;10.30;;;;;;;3.54;100.00;101247.38;10515659;27;20033;-79
2023/12/20 08:20:15;;;;;;;12.73;6.55;;;;;;;3.69;100.00;101249.41;10490760;28;20051;-78
2023/12/20 08:25:15;;;;;;;15.63;7.00;;;;;;;3.78;100.00;101253.63;10457187;28;20136;-80
2023/12/20 08:30:20;;;;;;;18.45;5.60;;;;;;;3.86;100.00;101256.88;10486117;28;20494;-80
2023/12/20 08:35:21;;;;;;;20.80;8.65;;;;;;;3.92;100.00;101244.41;10505469;28;20055;-79
2023/12/20 08:40:21;;;;;;;49.25;6.95;;;;;;;3.97;100.00;101250.88;10505145;28;20070;-79
2023/12/20 08:45:22;;;;;;;26.42;9.95;;;;;;;4.05;100.00;101255.75;10480807;28;20107;-79
2023/12/20 08:50:22;;;;;;;24.27;6.18;;;;;;;4.08;100.00;101256.00;10498931;28;20055;-79
2023/12/20 08:55:23;;;;;;;24.10;4.32;;;;;;;4.18;100.00;101235.22;10498804;28;20174;-79
2023/12/20 09:00:24;;;;;;;5.22;3.85;;;;;;;4.25;100.00;101231.41;10487302;28;20041;-79
2023/12/20 09:05:25;;;;;;;10.57;5.07;;;;;;;4.29;100.00;101210.16;10505266;28;20139;-80
2023/12/20 09:10:25;;;;;;;18.02;5.35;;;;;;;4.47;100.00;101194.22;10498643;28;20055;-81
2023/12/20 09:15:26;;;;;;;12.15;5.00;;;;;;;4.50;100.00;101195.38;10475341;28;20147;-82
2023/12/20 09:20:27;;;;;;;20.13;4.10;;;;;;;4.65;100.00;101190.44;10482396;28;20036;-82
2023/12/20 09:25:29;;;;;;;9.07;5.22;;;;;;;4.72;100.00;101186.66;10512543;28;20448;-81
2023/12/20 09:30:29;;;;;;;6.75;3.55;;;;;;;4.74;100.00;101190.28;10508387;28;20067;-80
2023/12/20 09:35:30;;;;;;;6.13;4.18;;;;;;;4.84;100.00;101181.47;10512553;28;20543;-81
2023/12/20 09:40:30;;;;;;;17.88;5.30;;;;;;;4.84;100.00;101185.00;10487990;28;20126;-81
2023/12/20 09:45:31;;;;;;;19.80;4.10;;;;;;;4.80;100.00;101177.78;10503079;28;20037;-81
2023/12/20 09:50:33;;;;;;;7.60;4.15;;;;;;;4.80;100.00;101179.44;10505384;28;20482;-82
2023/12/20 09:55:33;;;;;;;10.93;4.20;;;;;;;4.83;100.00;101182.28;10510910;28;20119;-82
2023/12/20 10:00:37;;;;;;;12.05;4.95;;;;;;;4.86;100.00;101190.28;10495387;28;20467;-80
2023/12/20 10:05:37;;;;;;;9.77;5.15;;;;;;;4.95;100.00;101177.13;10502922;28;20037;-80
2023/12/20 10:10:38;;;;;;;9.27;5.55;;;;;;;5.01;100.00;101172.41;10487627;28;20036;-79
2023/12/20 10:15:38;;;;;;;10.65;5.18;;;;;;;5.03;100.00;101163.03;10510802;28;20177;-80
2023/12/20 10:20:40;;;;;;;10.13;3.78;;;;;;;5.20;100.00;101164.28;10485524;28;20039;-81
2023/12/20 10:25:41;;;;;;;9.52;3.03;;;;;;;5.26;100.00;101161.25;10486359;28;20533;-80
2023/12/20 10:30:42;;;;;;;9.23;4.43;;;;;;;5.26;100.00;101153.47;10503437;28;20071;-79
2023/12/20 10:35:42;;;;;;;17.20;4.95;;;;;;;5.23;100.00;101159.31;10512011;28;20556;-80
2023/12/20 10:40:43;;;;;;;8.20;3.17;;;;;;;5.28;100.00;101157.97;10509531;28;20174;-80
2023/12/20 10:45:43;;;;;;;12.13;3.75;;;;;;;5.35;100.00;101155.81;10484490;28;20554;-81
2023/12/20 10:50:44;;;;;;;7.18;3.90;;;;;;;5.34;100.00;101146.22;10503417;28;20132;-81
2023/12/20 10:55:44;;;;;;;9.60;3.50;;;;;;;5.38;100.00;101143.97;10478373;28;20136;-80
2023/12/20 11:00:45;;;;;;;12.95;4.72;;;;;;;5.43;100.00;101136.50;10490465;28;20535;-81
2023/12/20 11:06:02;;;;;;;5.80;2.58;;;;;;;5.40;100.00;101146.66;10484688;28;20503;-80
2023/12/20 11:11:09;;;;;;;12.88;6.63;;;;;;;5.35;100.00;101138.56;10507596;28;20119;-81
2023/12/20 11:16:10;;;;;;;9.50;5.97;;;;;;;5.32;100.00;101135.75;10492309;28;20051;-80
2023/12/20 11:21:10;;;;;;;7.50;4.30;;;;;;;5.25;100.00;101141.28;10503556;28;20469;-81
2023/12/20 11:26:11;;;;;;;31.45;5.45;;;;;;;5.21;100.00;101139.25;10483273;28;20045;-80
2023/12/20 11:31:14;;;;;;;12.70;5.15;;;;;;;5.16;100.00;101148.38;10490877;28;20076;-81
2023/12/20 11:36:15;;;;;;;8.52;3.28;;;;;;;5.18;100.00;101150.28;10422218;28;20036;-80
2023/12/20 11:41:15;;;;;;;13.85;4.93;;;;;;;5.19;100.00;101138.22;10476498;28;20135;-80
2023/12/20 11:46:16;;;;;;;9.13;4.50;;;;;;;5.24;100.00;101140.34;10466875;28;20078;-79
2023/12/20 11:51:16;;;;;;;19.00;5.18;;;;;;;5.31;100.00;101122.63;10498228;28;20474;-81
2023/12/20 11:56:17;;;;;;;6.55;3.47;;;;;;;5.37;100.00;101112.69;10483021;28;20043;-80
2023/12/20 12:01:19;;;;;;;10.80;4.25;;;;;;;5.40;100.00;101121.63;10450359;28;20116;-79
2023/12/20 12:06:20;;;;;;;20.52;6.38;;;;;;;5.54;100.00;101114.81;10399045;28;20398;-79
2023/12/20 12:11:21;;;;;;;10.18;4.88;;;;;;;5.62;100.00;101102.41;10446636;28;20120;-80
2023/12/20 12:16:22;;;;;;;10.07;4.63;;;;;;;5.68;100.00;101089.84;10405728;28;20063;-81
2023/12/20 12:21:22;;;;;;;8.10;3.83;;;;;;;5.68;100.00;101095.06;10435049;28;20132;-80
2023/12/20 12:26:25;;;;;;;8.60;5.20;;;;;;;5.60;100.00;101091.00;10440419;28;20538;-79
2023/12/20 12:31:26;;;;;;;7.10;3.65;;;;;;;5.59;100.00;101074.50;10492651;28;20041;-79
2023/12/20 12:36:28;;;;;;;8.82;3.90;;;;;;;5.65;100.00;101087.03;10498096;28;20028;-79
2023/12/20 12:41:29;;;;;;;9.27;4.30;;;;;;;5.68;100.00;101081.16;10486717;28;20093;-79
2023/12/20 12:46:29;;;;;;;8.32;3.72;;;;;;;5.72;100.00;101083.16;10499115;28;20041;-81
2023/12/20 12:51:31;;;;;;;12.55;4.82;;;;;;;5.69;100.00;101090.75;10504881;28;20440;-79
2023/12/20 12:56:31;;;;;;;5.97;3.73;;;;;;;5.67;100.00;101082.84;10501913;28;20468;-80
2023/12/20 13:01:32;;;;;;;11.15;6.38;;;;;;;5.69;100.00;101075.16;10476833;28;20349;-79
2023/12/20 13:06:32;;;;;;;23.50;6.80;;;;;;;5.68;100.00;101055.19;10504041;28;20044;-80
2023/12/20 13:11:33;;;;;;;25.42;8.48;;;;;;;5.63;100.00;101060.06;10505146;28;20043;-80
2023/12/20 13:16:34;;;;;;;16.17;6.25;;;;;;;5.68;100.00;101049.97;10479533;28;20044;-80
2023/12/20 13:21:34;;;;;;;13.90;5.65;;;;;;;5.78;100.00;101043.75;10507964;28;20597;-81
2023/12/20 13:26:36;;;;;;;12.75;5.35;;;;;;;5.79;100.00;101038.66;10507786;28;20135;-81
2023/12/20 13:31:37;;;;;;;17.30;6.10;;;;;;;5.73;100.00;101020.97;10513574;28;20063;-80
2023/12/20 13:36:37;;;;;;;11.30;7.07;;;;;;;5.75;100.00;101018.44;10495463;28;20048;-78
2023/12/20 13:41:38;;;;;;;17.75;6.13;;;;;;;5.79;100.00;101007.47;10503579;28;20170;-82
2023/12/20 13:46:39;;;;;;;9.52;5.82;;;;;;;5.93;100.00;100990.25;10470203;28;20052;-80
2023/12/20 13:51:40;;;;;;;15.90;6.13;;;;;;;5.97;100.00;100992.28;10471441;28;20036;-81
2023/12/20 13:56:40;;;;;;;11.45;5.85;;;;;;;5.99;100.00;100971.56;10488239;28;20040;-81
2023/12/20 14:01:41;;;;;;;6.15;4.82;;;;;;;6.08;100.00;100977.44;10494217;28;20139;-81
2023/12/20 14:06:42;;;;;;;13.10;8.23;;;;;;;6.08;100.00;100984.34;10483829;28;20116;-81
2023/12/20 14:11:42;;;;;;;25.30;7.63;;;;;;;5.99;100.00;100962.09;10423019;28;20432;-81
2023/12/20 14:16:44;;;;;;;21.05;5.65;;;;;;;5.91;100.00;100970.16;10446921;28;20128;-85
2023/12/20 14:21:45;;;;;;;35.30;7.47;;;;;;;5.86;100.00;100975.94;10468031;28;20097;-84
2023/12/20 14:26:46;;;;;;;5.95;4.95;;;;;;;5.84;100.00;100980.13;10490000;28;20088;-81
2023/12/20 14:31:46;;;;;;;9.75;5.60;;;;;;;5.83;100.00;100982.63;10491221;28;20107;-82
2023/12/20 14:36:47;;;;;;;12.27;6.05;;;;;;;5.80;100.00;100979.81;10477689;28;20575;-81
2023/12/20 14:41:47;;;;;;;30.52;5.57;;;;;;;5.79;100.00;100991.00;10431042;28;20119;-82
2023/12/20 14:46:48;;;;;;;16.95;5.97;;;;;;;5.77;100.00;100996.09;10470464;28;20032;-82
2023/12/20 14:51:48;;;;;;;12.77;6.78;;;;;;;5.70;100.00;101006.84;10508247;28;20038;-82
2023/12/20 14:56:49;;;;;;;18.08;5.90;;;;;;;5.72;100.00;100992.28;10495404;28;20071;-80
2023/12/20 15:01:49;;;;;;;10.40;4.93;;;;;;;5.68;100.00;100978.19;10493503;28;20123;-81
2023/12/20 15:06:50;;;;;;;20.95;6.68;;;;;;;5.66;100.00;100989.25;10492846;28;20048;-81
2023/12/20 15:11:50;;;;;;;18.05;5.88;;;;;;;5.60;100.00;100987.13;10443665;28;20119;-81
2023/12/20 15:16:51;;;;;;;13.50;5.43;;;;;;;5.62;100.00;101001.13;10480179;28;20048;-80
2023/12/20 15:21:52;;;;;;;12.77;7.10;;;;;;;5.67;100.00;100998.84;10485008;28;20036;-80
2023/12/20 15:26:53;;;;;;;24.23;6.47;;;;;;;5.66;100.00;100981.47;10488129;28;20059;-79
2023/12/20 15:31:54;;;;;;;10.27;6.13;;;;;;;5.70;100.00;100980.88;10495359;28;20105;-80
2023/12/20 15:36:56;;;;;;;14.35;6.20;;;;;;;5.76;100.00;100972.63;10506517;28;20510;-80
2023/12/20 15:41:59;;;;;;;14.32;5.28;;;;;;;5.76;100.00;100972.63;10497232;28;20480;-80
2023/12/20 15:47:00;;;;;;;9.98;2.95;;;;;;;5.77;100.00;100967.50;10447000;28;20044;-81
2023/12/20 15:52:00;;;;;;;17.50;7.32;;;;;;;5.73;100.00;100961.22;10411676;28;20456;-82
2023/12/20 15:57:01;;;;;;;13.98;5.88;;;;;;;5.73;100.00;100970.69;10448668;28;20040;-82
2023/12/20 16:02:02;;;;;;;13.77;5.28;;;;;;;5.72;100.00;100964.63;10456683;28;20039;-81
2023/12/20 16:07:03;;;;;;;19.17;8.63;;;;;;;5.77;100.00;100971.81;10487794;28;20035;-80
2023/12/20 16:12:04;;;;;;;24.63;9.18;;;;;;;5.75;100.00;100974.31;10506419;28;20045;-79
2023/12/20 16:17:05;;;;;;;18.73;8.13;;;;;;;5.80;100.00;100957.34;10466036;28;20091;-80
2023/12/20 16:22:08;;;;;;;13.73;7.40;;;;;;;5.77;100.00;100954.53;10491355;28;20530;-80
2023/12/20 16:27:09;;;;;;;17.35;8.05;;;;;;;5.76;100.00;100944.94;10461717;28;20049;-79
2023/12/20 16:32:09;;;;;;;25.45;8.20;;;;;;;5.82;100.00;100939.28;10488650;28;20377;-81
2023/12/20 16:37:10;;;;;;;15.57;8.05;;;;;;;5.82;100.00;100934.09;10497599;28;20169;-80
2023/12/20 16:42:10;;;;;;;24.88;9.70;;;;;;;5.83;100.00;100913.38;10500317;28;20043;-81
2023/12/20 16:47:11;;;;;;;16.13;8.02;;;;;;;5.85;100.00;100906.59;10508931;28;20131;-82
2023/12/20 16:52:11;;;;;;;14.00;7.95;;;;;;;5.81;100.00;100907.19;10494217;28;20048;-82
2023/12/20 16:57:12;;;;;;;15.00;6.93;;;;;;;5.78;100.00;100916.50;10487343;28;20125;-81
2023/12/20 17:02:13;;;;;;;13.60;7.63;;;;;;;5.76;100.00;100921.56;10495069;28;20462;-80
2023/12/20 17:07:13;;;;;;;17.02;7.10;;;;;;;5.78;100.00;100899.19;10507418;28;20090;-79
2023/12/20 17:12:14;;;;;;;12.90;6.05;;;;;;;5.83;100.00;100896.91;10500155;28;20043;-81
2023/12/20 17:17:15;;;;;;;15.70;7.80;;;;;;;5.83;100.00;100886.53;10493291;28;20036;-81
2023/12/20 17:22:15;;;;;;;19.35;9.10;;;;;;;5.84;100.00;100868.44;10476787;28;20455;-80
2023/12/20 17:27:16;;;;;;;23.13;9.10;;;;;;;5.86;100.00;100864.25;10496688;28;20064;-80
2023/12/20 17:32:16;;;;;;;15.20;7.32;;;;;;;5.83;100.00;100873.53;10495964;28;20119;-82
2023/12/20 17:37:16;;;;;;;14.93;7.53;;;;;;;5.86;100.00;100863.34;10488973;28;20051;-83
2023/12/20 17:42:17;;;;;;;19.77;6.90;;;;;;;5.94;100.00;100846.59;10502380;28;22037;-80
2023/12/20 17:47:17;;;;;;;14.20;5.63;;;;;;;5.99;100.00;100844.28;10506142;28;20040;-81
2023/12/20 17:52:18;;;;;;;17.58;8.13;;;;;;;6.05;100.00;100846.41;10509604;28;20070;-81
2023/12/20 17:57:19;;;;;;;17.02;8.38;;;;;;;6.09;100.00;100833.72;10507550;28;20045;-80
2023/12/20 18:02:19;;;;;;;10.98;6.78;;;;;;;6.09;100.00;100820.72;10501411;28;20441;-80
2023/12/20 18:07:20;;;;;;;11.88;5.53;;;;;;;6.13;100.00;100803.66;10486706;28;20052;-79
2023/12/20 18:12:20;;;;;;;14.25;7.15;;;;;;;6.14;100.00;100795.94;10507385;28;20077;-80
2023/12/20 18:17:21;;;;;;;21.73;8.68;;;;;;;6.14;100.00;100801.13;10503790;28;20112;-81
2023/12/20 18:22:21;;;;;;;10.73;6.78;;;;;;;6.14;100.00;100803.72;10491712;28;20032;-82
2023/12/20 18:27:22;;;;;;;16.00;6.95;;;;;;;6.19;100.00;100791.03;10506168;28;20547;-81
2023/12/20 18:32:24;;;;;;;11.18;6.75;;;;;;;6.30;100.00;100781.31;10501543;28;20033;-80
2023/12/20 18:37:24;;;;;;;;;;;;;;;6.34;100.00;100783.31;10504793;28;20082;-80
2023/12/20 18:42:25;;;;;;;16.10;5.47;;;;;;;6.31;100.00;100765.84;10489814;28;19920;-80
2023/12/20 18:47:26;;;;;;;13.05;7.93;;;;;;;6.34;100.00;100753.84;10493887;28;20362;-80
2023/12/20 18:52:27;;;;;;;12.70;7.30;;;;;;;6.34;100.00;100759.03;10508682;28;20040;-80
2023/12/20 18:57:27;;;;;;;18.33;9.00;;;;;;;6.34;100.00;100762.50;10503081;28;20127;-80
2023/12/20 19:02:30;;;;;;;16.60;6.47;;;;;;;6.35;100.00;100766.91;10491689;28;20131;-80
2023/12/20 19:07:31;;;;;;;10.10;5.30;;;;;;;6.41;100.00;100738.69;10506303;28;20075;-80
2023/12/20 19:12:32;;;;;;;20.27;9.05;;;;;;;6.41;100.00;100746.50;10507818;28;20497;-80
2023/12/20 19:17:33;;;;;;;14.48;6.07;;;;;;;6.45;100.00;100738.09;10498167;28;20119;-80
2023/12/20 19:22:34;;;;;;;14.82;7.78;;;;;;;6.47;100.00;100743.41;10509437;28;20044;-80
2023/12/20 19:27:35;;;;;;;13.77;7.55;;;;;;;6.52;100.00;100741.97;10508271;28;20130;-80
2023/12/20 19:32:35;;;;;;;12.20;7.03;;;;;;;6.49;100.00;100735.69;10504467;28;20067;-82
2023/12/20 19:37:36;;;;;;;15.80;8.02;;;;;;;6.42;100.00;100726.63;10491098;28;20110;-80
2023/12/20 19:42:37;;;;;;;14.73;7.55;;;;;;;6.42;100.00;100719.69;10498028;28;20119;-80
2023/12/20 19:47:38;;;;;;;10.80;6.37;;;;;;;6.35;100.00;100703.63;10499545;28;20476;-81
2023/12/20 19:52:38;;;;;;;16.30;9.07;;;;;;;6.30;100.00;100698.13;10498737;28;20127;-81
2023/12/20 19:57:39;;;;;;;15.93;8.07;;;;;;;6.27;100.00;100705.75;10502830;28;20075;-81
2023/12/20 20:02:39;;;;;;;21.02;9.02;;;;;;;6.22;100.00;100704.56;10507614;28;20130;-80
2023/12/20 20:07:46;;;;;;;23.67;8.98;;;;;;;6.18;100.00;100700.88;10503656;28;20116;-78
2023/12/20 20:12:50;;;;;;;22.85;9.35;;;;;;;6.22;100.00;100704.56;10506361;28;20394;-79
2023/12/20 20:17:50;;;;;;;17.10;8.32;;;;;;;6.15;100.00;100709.38;10497714;28;20041;-78
2023/12/20 20:22:51;;;;;;;19.10;8.88;;;;;;;6.19;100.00;100693.97;10479199;28;20719;-79
2023/12/20 20:27:51;;;;;;;13.13;9.02;;;;;;;6.15;100.00;100691.19;10485138;28;20497;-81
2023/12/20 20:32:52;;;;;;;17.25;7.90;;;;;;;6.18;100.00;100682.69;10469978;28;20037;-81
2023/12/20 20:37:52;;;;;;;14.15;7.43;;;;;;;6.17;100.00;100694.78;10484504;28;20112;-80
2023/12/20 20:42:53;;;;;;;19.15;10.13;;;;;;;6.17;100.00;100684.38;10476699;28;20124;-82
2023/12/20 20:47:53;;;;;;;18.75;8.35;;;;;;;6.22;100.00;100691.56;10483939;28;20128;-83
2023/12/20 20:52:54;;;;;;;27.63;8.38;;;;;;;6.23;100.00;100701.16;10505565;28;20040;-81
2023/12/20 20:57:54;;;;;;;12.68;7.25;;;;;;;6.32;100.00;100691.34;10494373;28;20123;-81
2023/12/20 21:02:55;;;;;;;12.43;7.20;;;;;;;6.34;100.00;100691.44;10497819;28;20131;-81
2023/12/20 21:07:56;;;;;;;18.73;7.35;;;;;;;6.38;100.00;100678.72;10500646;28;20068;-80
2023/12/20 21:12:57;;;;;;;10.77;6.53;;;;;;;6.42;100.00;100674.63;10494649;28;20069;-81
2023/12/20 21:17:57;;;;;;;12.27;6.57;;;;;;;6.47;100.00;100655.00;10502843;28;20127;-80
2023/12/20 21:22:58;;;;;;;13.50;6.97;;;;;;;6.55;100.00;100638.16;10499027;28;20149;-80
2023/12/20 21:27:59;;;;;;;14.85;8.50;;;;;;;6.56;100.00;100641.63;10493516;28;20048;-80
2023/12/20 21:33:08;;;;;;;12.63;7.05;;;;;;;6.63;100.00;100633.41;10503458;28;20163;-81
2023/12/20 21:38:10;;;;;;;10.18;5.32;;;;;;;6.67;100.00;100611.97;10512899;28;20043;-80
2023/12/20 21:43:10;;;;;;;14.55;7.38;;;;;;;6.71;100.00;100605.25;10505733;28;20071;-80
2023/12/20 21:48:12;;;;;;;22.40;8.57;;;;;;;6.73;100.00;100607.13;10508983;28;20127;-78
2023/12/20 21:53:13;;;;;;;14.02;7.38;;;;;;;6.76;100.00;100596.03;10499250;28;20037;-79
2023/12/20 21:58:14;;;;;;;11.30;6.10;;;;;;;6.79;100.00;100582.28;10507861;28;20558;-79
2023/12/20 22:03:14;;;;;;;15.13;8.25;;;;;;;6.78;100.00;100583.09;10504943;28;20040;-80
2023/12/20 22:08:15;;;;;;;15.15;7.22;;;;;;;6.73;100.00;100612.34;10494788;28;20126;-79
2023/12/20 22:13:15;;;;;;;12.50;7.18;;;;;;;6.75;100.00;100595.13;10505855;28;20055;-80
2023/12/20 22:18:17;;;;;;;18.08;9.02;;;;;;;6.75;100.00;100583.84;10502355;28;20041;-80
2023/12/20 22:23:17;;;;;;;14.52;10.00;;;;;;;6.74;100.00;100584.63;10499533;28;20053;-80
2023/12/20 22:28:18;;;;;;;14.23;8.02;;;;;;;6.74;100.00;100593.31;10494824;28;20058;-79
2023/12/20 22:33:19;;;;;;;16.05;8.13;;;;;;;6.78;100.00;100607.41;10502962;28;20120;-79
2023/12/20 22:38:19;;;;;;;20.83;9.25;;;;;;;6.80;100.00;100608.41;10509381;28;20036;-79
2023/12/20 22:43:20;;;;;;;15.82;9.00;;;;;;;6.82;100.00;100595.47;10484838;28;20495;-80
2023/12/20 22:48:20;;;;;;;14.57;9.48;;;;;;;6.84;100.00;100596.47;10502958;28;20075;-80